Flight Track Log - Related Links

Times and Time Zones

All times are in EDT time to prevent confusion due to time zone crossing. See the UAL626 flight status page for this flight to view local times or setup timezone preferences in your user account.

Time Position Orientation Groundspeed Altitude Reporting Facility
EDT Latitude Longitude Course Direction KTS MPH feet Rate Location/Type
Tue 02:31:15 PM 33.6871 -117.8341 336° Northwest  Level FlightAware Approximate
Tue 02:31:58 PM 33.7167 -117.8500 107° East 161 185 1,800  Level Southern California TRACON
Tue 02:32:58 PM 33.7000 -117.7833 113° Southeast 241 277 3,200 2,268 Climbing Southern California TRACON
Tue 02:34:42 PM 33.6503 -117.6458 109° East 280 322 8,000 3,037 Climbing Los Angeles Center
Tue 02:35:42 PM 33.6242 -117.5556 108° East 280 322 11,500 2,700 Climbing Los Angeles Center
Tue 02:36:42 PM 33.5942 -117.4478 97° East 304 350 13,400 2,250 Climbing Los Angeles Center
Tue 02:37:42 PM 33.5808 -117.3106 80° East 354 407 16,000 2,650 Climbing Los Angeles Center
Tue 02:38:42 PM 33.6011 -117.1736 90° East 364 419 18,700 2,850 Climbing Los Angeles Center
Tue 02:39:42 PM 33.6019 -117.0439 87° East 379 436 21,700 1,850 Climbing Los Angeles Center
Tue 02:40:42 PM 33.6072 -116.9069 89° East 391 450 22,400 850 Climbing Los Angeles Center
Tue 02:41:42 PM 33.6103 -116.7622 87° East 413 475 23,400 1,250 Climbing Los Angeles Center
Tue 02:42:42 PM 33.6172 -116.6100 89° East 435 501 24,900 1,250 Climbing Los Angeles Center
Tue 02:43:42 PM 33.6197 -116.4756 84° East 442 509 25,900 1,100 Climbing Los Angeles Center
Tue 02:44:42 PM 33.6325 -116.3208 56° Northeast 454 522 27,100 1,050 Climbing Los Angeles Center
Tue 02:45:42 PM 33.7100 -116.1836 55° Northeast 463 533 28,000 900 Climbing Los Angeles Center
Tue 02:46:42 PM 33.7914 -116.0461 54° Northeast 474 545 28,900 1,100 Climbing Los Angeles Center
Tue 02:47:42 PM 33.8725 -115.9111 55° Northeast 496 571 30,200 1,250 Climbing Los Angeles Center
Tue 02:48:42 PM 33.9536 -115.7706 55° Northeast 501 577 31,400 1,000 Climbing Los Angeles Center
Tue 02:49:42 PM 34.0344 -115.6300 55° Northeast 507 583 32,200 800 Climbing Los Angeles Center
Tue 02:50:42 PM 34.1153 -115.4889 55° Northeast 507 583 33,000 350 Climbing Los Angeles Center
Tue 02:51:42 PM 34.1981 -115.3478 56° Northeast 507 583 32,900 -50 Descending Los Angeles Center
Tue 02:52:43 PM 34.2783 -115.2061 56° Northeast 512 589 32,900  Level Los Angeles Center
Tue 02:53:42 PM 34.3586 -115.0644 56° Northeast 512 589 32,900 101 Level Los Angeles Center
Tue 02:54:42 PM 34.4386 -114.9222 54° Northeast 512 589 33,100 600 Climbing Los Angeles Center
Tue 02:55:42 PM 34.5208 -114.7825 56° Northeast 512 589 34,100 900 Climbing Los Angeles Center
Tue 02:56:42 PM 34.5983 -114.6425 56° Northeast 512 589 34,900 450 Climbing Los Angeles Center
Tue 02:57:42 PM 34.6800 -114.4969 55° Northeast 512 589 35,000 50 Climbing Los Angeles Center
Tue 02:58:42 PM 34.7617 -114.3539 56° Northeast 512 589 35,000 -50 Level Los Angeles Center
Tue 02:59:42 PM 34.8389 -114.2156 55° Northeast 512 589 34,900 -50 Descending Los Angeles Center
Tue 03:00:42 PM 34.9200 -114.0719 56° Northeast 512 589 34,900 50 Level Los Angeles Center
Tue 03:01:42 PM 35.0028 -113.9200 55° Northeast 507 583 35,000 50 Climbing Los Angeles Center
Tue 03:02:42 PM 35.0817 -113.7808 57° Northeast 502 578 35,000  Level Los Angeles Center
Tue 03:03:42 PM 35.1581 -113.6392 56° Northeast 502 578 35,000  Level Los Angeles Center
Tue 03:04:42 PM 35.2367 -113.4969 56° Northeast 497 572 35,000  Level Los Angeles Center
Tue 03:05:42 PM 35.3147 -113.3544 56° Northeast 502 578 35,000  Level Los Angeles Center
Tue 03:06:42 PM 35.3869 -113.2244 57° Northeast 502 578 35,000  Level Los Angeles Center
Tue 03:07:42 PM 35.4647 -113.0789 57° Northeast 502 578 35,000  Level Los Angeles Center
Tue 03:08:42 PM 35.5483 -112.9228 57° Northeast 502 578 35,000 -50 Level Los Angeles Center
Tue 03:09:42 PM 35.6239 -112.7817 56° Northeast 502 578 34,900 -50 Descending Los Angeles Center
Tue 03:10:42 PM 35.6933 -112.6536 57° Northeast 497 572 34,900 50 Level Los Angeles Center
Tue 03:11:42 PM 35.7683 -112.5094 57° Northeast 497 572 35,000 38 Climbing Los Angeles Center
Tue 03:13:20 PM 35.9000 -112.2581 56° Northeast 512 589 35,000  Level Denver Center
Tue 03:14:20 PM 35.9758 -112.1178 57° Northeast 506 582 35,000  Level Denver Center
Tue 03:15:20 PM 36.0497 -111.9747 58° Northeast 500 575 35,000  Level Denver Center
Tue 03:16:20 PM 36.1211 -111.8308 56° Northeast 495 570 35,000  Level Denver Center
Tue 03:17:20 PM 36.1875 -111.7072 57° Northeast 489 563 35,000 -50 Level Denver Center
Tue 03:18:20 PM 36.2606 -111.5683 57° Northeast 479 551 34,900  Descending Denver Center
Tue 03:19:20 PM 36.3333 -111.4264 57° Northeast 479 551 35,000 50 Climbing Denver Center
Tue 03:20:20 PM 36.4083 -111.2819 57° Northeast 479 551 35,000  Level Denver Center
Tue 03:21:20 PM 36.4811 -111.1397 58° Northeast 479 551 35,000  Level Denver Center
Tue 03:22:20 PM 36.5514 -110.9994 57° Northeast 479 551 35,000  Level Denver Center
Tue 03:23:20 PM 36.6236 -110.8592 58° Northeast 479 551 35,000  Level Denver Center
Tue 03:24:20 PM 36.7003 -110.7033 57° Northeast 479 551 35,000  Level Denver Center
Tue 03:25:20 PM 36.7744 -110.5625 58° Northeast 479 551 35,000  Level Denver Center
Tue 03:26:20 PM 36.8439 -110.4211 58° Northeast 479 551 35,000  Level Denver Center
Tue 03:27:20 PM 36.9156 -110.2797 57° Northeast 479 551 35,000  Level Denver Center
Tue 03:28:20 PM 36.9778 -110.1608 58° Northeast 470 541 35,000  Level Denver Center
Tue 03:29:20 PM 37.0556 -110.0061 58° Northeast 468 539 35,000  Level Denver Center
Tue 03:30:20 PM 37.1244 -109.8664 58° Northeast 468 539 35,000  Level Denver Center
Tue 03:31:20 PM 37.1933 -109.7264 59° Northeast 474 545 35,000  Level Denver Center
Tue 03:32:20 PM 37.2575 -109.5936 58° Northeast 474 545 35,000  Level Denver Center
Tue 03:33:20 PM 37.3278 -109.4531 58° Northeast 474 545 35,000  Level Denver Center
Tue 03:34:20 PM 37.4050 -109.2944 59° Northeast 479 551 35,000  Level Denver Center
Tue 03:35:20 PM 37.4731 -109.1533 59° Northeast 479 551 35,000  Level Denver Center
Tue 03:36:20 PM 37.5344 -109.0219 59° Northeast 479 551 35,000  Level Denver Center
Tue 03:37:20 PM 37.6042 -108.8778 60° Northeast 479 551 35,000  Level Denver Center
Tue 03:38:20 PM 37.6761 -108.7228 59° Northeast 473 544 35,000 -50 Level Denver Center
Tue 03:39:20 PM 37.7456 -108.5781 59° Northeast 473 544 34,900  Descending Denver Center
Tue 03:40:20 PM 37.8064 -108.4511 60° Northeast 473 544 35,000 50 Climbing Denver Center
Tue 03:41:20 PM 37.8733 -108.3058 60° Northeast 473 544 35,000  Level Denver Center
Tue 03:42:20 PM 37.9467 -108.1469 58° Northeast 473 544 35,000  Level Denver Center
Tue 03:43:20 PM 38.0153 -108.0064 61° Northeast 468 539 35,000 100 Level Denver Center
Tue 03:44:20 PM 38.0647 -107.8914 61° Northeast 459 528 35,200 450 Climbing Denver Center
Tue 03:45:20 PM 38.1356 -107.7319 59° Northeast 468 539 35,900 900 Climbing Denver Center
Tue 03:46:20 PM 38.2081 -107.5772 60° Northeast 463 533 37,000 550 Climbing Denver Center
Tue 03:47:20 PM 38.2719 -107.4356 60° Northeast 458 527 37,000  Level Denver Center
Tue 03:48:20 PM 38.3292 -107.3092 60° Northeast 466 536 37,000  Level Denver Center
Tue 03:49:20 PM 38.3947 -107.1644 59° Northeast 466 536 37,000  Level Denver Center
Tue 03:50:20 PM 38.4686 -107.0086 56° Northeast 466 536 37,000  Level Denver Center
Tue 03:51:20 PM 38.5400 -106.8739 57° Northeast 466 536 37,000  Level Denver Center
Tue 03:52:20 PM 38.6031 -106.7494 56° Northeast 466 536 37,000  Level Denver Center
Tue 03:53:20 PM 38.6783 -106.6089 55° Northeast 461 531 37,000  Level Denver Center
Tue 03:54:20 PM 38.7597 -106.4572 57° Northeast 467 537 37,000  Level Denver Center
Tue 03:55:20 PM 38.8306 -106.3186 57° Northeast 462 532 37,000  Level Denver Center
Tue 03:56:20 PM 38.8947 -106.1931 57° Northeast 462 532 37,000  Level Denver Center
Tue 03:57:20 PM 38.9653 -106.0514 56° Northeast 462 532 37,000  Level Denver Center
Tue 03:58:20 PM 39.0378 -105.9144 57° Northeast 462 532 37,000  Level Denver Center
Tue 03:59:20 PM 39.1100 -105.7722 57° Northeast 467 537 37,000  Level Denver Center
Tue 04:00:20 PM 39.1881 -105.6186 56° Northeast 462 532 37,000  Level Denver Center
Tue 04:01:20 PM 39.2578 -105.4836 57° Northeast 462 532 37,000  Level Denver Center
Tue 04:02:20 PM 39.3294 -105.3406 57° Northeast 462 532 37,000  Level Denver Center
Tue 04:03:20 PM 39.4011 -105.1994 57° Northeast 462 532 37,000  Level Denver Center
Tue 04:04:20 PM 39.4725 -105.0583 57° Northeast 462 532 37,000  Level Denver Center
Tue 04:05:20 PM 39.5414 -104.9194 56° Northeast 462 532 37,000  Level Denver Center
Tue 04:06:20 PM 39.6147 -104.7806 58° Northeast 467 537 37,000 -50 Level Denver Center
Tue 04:07:20 PM 39.6792 -104.6467 64° Northeast 473 544 36,900  Descending Denver Center
Tue 04:08:20 PM 39.7433 -104.4775 76° East 473 544 37,000 50 Climbing Denver Center
Tue 04:09:20 PM 39.7736 -104.3172 80° East 460 529 37,000 -50 Level Denver Center
Tue 04:10:20 PM 39.7975 -104.1461 76° East 467 537 36,900  Descending Denver Center
Tue 04:11:20 PM 39.8294 -103.9775 76° East 472 543 37,000 50 Climbing Denver Center
Tue 04:12:20 PM 39.8611 -103.8114 75° East 472 543 37,000  Level Denver Center
Tue 04:13:20 PM 39.8947 -103.6503 73° East 472 543 37,000 -50 Level Denver Center
Tue 04:14:20 PM 39.9325 -103.4861 65° Northeast 472 543 36,900  Descending Denver Center
Tue 04:15:20 PM 39.9886 -103.3292 66° East 472 543 37,000 50 Climbing Denver Center
Tue 04:16:20 PM 40.0428 -103.1722 67° East 472 543 37,000  Level Denver Center
Tue 04:17:20 PM 40.0886 -103.0314 66° East 472 543 37,000  Level Denver Center
Tue 04:18:20 PM 40.1422 -102.8739 66° East 466 536 37,000  Level Denver Center
Tue 04:19:20 PM 40.1956 -102.7158 67° East 466 536 37,000  Level Denver Center
Tue 04:20:20 PM 40.2464 -102.5553 66° East 471 542 37,000  Level Denver Center
Tue 04:21:20 PM 40.2994 -102.3997 67° East 471 542 37,000  Level Denver Center
Tue 04:22:20 PM 40.3539 -102.2275 66° East 465 535 37,000  Level Denver Center
Tue 04:23:20 PM 40.4064 -102.0714 67° East 465 535 37,000  Level Denver Center
Tue 04:24:20 PM 40.4528 -101.9264 67° East 465 535 37,000  Level Denver Center
Tue 04:25:20 PM 40.5031 -101.7728 66° East 459 528 37,000  Level Denver Center
Tue 04:26:20 PM 40.5606 -101.5992 67° East 459 528 37,000  Level Denver Center
Tue 04:27:20 PM 40.6100 -101.4422 68° East 459 528 37,000  Level Denver Center
Tue 04:28:20 PM 40.6539 -101.3019 66° East 459 528 37,000  Level Denver Center
Tue 04:29:20 PM 40.7053 -101.1472 68° East 459 528 37,000  Level Denver Center
Tue 04:30:20 PM 40.7578 -100.9758 67° East 457 526 37,000  Level Denver Center
Tue 04:31:20 PM 40.8086 -100.8178 67° East 457 526 37,000  Level Denver Center
Tue 04:32:20 PM 40.8589 -100.6597 68° East 457 526 37,000  Level Denver Center
Tue 04:33:20 PM 40.9092 -100.4986 68° East 457 526 37,000  Level Denver Center
Tue 04:34:20 PM 40.9519 -100.3600 67° East 462 532 37,000 -50 Level Denver Center
Tue 04:35:20 PM 41.0000 -100.2067 68° East 457 526 36,900  Descending Denver Center
Tue 04:36:20 PM 41.0531 -100.0308 68° East 452 520 37,000 50 Climbing Denver Center
Tue 04:37:20 PM 41.1008 -99.8772 68° East 452 520 37,000  Level Denver Center
Tue 04:38:20 PM 41.1428 -99.7378 69° East 447 514 37,000  Level Denver Center
Tue 04:40:45 PM 41.2542 -99.3589 68° East 442 509 37,000  Level Minneapolis Center
Tue 04:41:45 PM 41.3022 -99.1978 71° East 453 521 37,000  Level Minneapolis Center
Tue 04:42:45 PM 41.3436 -99.0414 68° East 453 521 37,000  Level Minneapolis Center
Tue 04:43:45 PM 41.3914 -98.8825 69° East 458 527 37,000  Level Minneapolis Center
Tue 04:44:45 PM 41.4389 -98.7208 70° East 458 527 37,000  Level Minneapolis Center
Tue 04:45:45 PM 41.4839 -98.5583 66° East 458 527 37,000  Level Minneapolis Center
Tue 04:46:45 PM 41.5419 -98.3831 69° East 464 534 37,000  Level Minneapolis Center
Tue 04:47:45 PM 41.5867 -98.2231 71° East 464 534 37,000  Level Minneapolis Center
Tue 04:48:45 PM 41.6239 -98.0817 71° East 457 526 37,000  Level Minneapolis Center
Tue 04:49:45 PM 41.6661 -97.9211 69° East 457 526 37,000  Level Minneapolis Center
Tue 04:50:45 PM 41.7122 -97.7603 70° East 457 526 37,000  Level Minneapolis Center
Tue 04:51:45 PM 41.7558 -97.5994 69° East 457 526 37,000  Level Minneapolis Center
Tue 04:52:45 PM 41.8011 -97.4439 70° East 457 526 37,000  Level Minneapolis Center
Tue 04:53:45 PM 41.8492 -97.2689 77° East 457 526 37,000  Level Minneapolis Center
Tue 04:54:45 PM 41.8778 -97.0981 82° East 457 526 37,000  Level Minneapolis Center
Tue 04:55:45 PM 41.8958 -96.9261 82° East 457 526 37,000  Level Minneapolis Center
Tue 04:56:45 PM 41.9136 -96.7600 82° East 462 532 37,000  Level Minneapolis Center
Tue 04:57:45 PM 41.9311 -96.5908 81° East 462 532 37,000  Level Minneapolis Center
Tue 04:58:45 PM 41.9503 -96.4217 82° East 462 532 37,000  Level Minneapolis Center
Tue 04:59:45 PM 41.9672 -96.2525 81° East 457 526 37,000 -50 Level Minneapolis Center
Tue 05:00:45 PM 41.9858 -96.0886 83° East 451 519 36,900  Descending Minneapolis Center
Tue 05:01:45 PM 42.0022 -95.9192 83° East 451 519 37,000 50 Climbing Minneapolis Center
Tue 05:02:45 PM 42.0186 -95.7497 82° East 458 527 37,000  Level Minneapolis Center
Tue 05:03:45 PM 42.0367 -95.5800 84° East 458 527 37,000  Level Minneapolis Center
Tue 05:04:45 PM 42.0503 -95.4075 82° East 463 533 37,000  Level Minneapolis Center
Tue 05:05:45 PM 42.0678 -95.2375 83° East 463 533 37,000  Level Minneapolis Center
Tue 05:06:45 PM 42.0828 -95.0675 81° East 463 533 37,000  Level Minneapolis Center
Tue 05:07:45 PM 42.1019 -94.9003 84° East 463 533 37,000  Level Minneapolis Center
Tue 05:08:45 PM 42.1144 -94.7272 82° East 463 533 37,000  Level Minneapolis Center
Tue 05:09:45 PM 42.1328 -94.5572 84° East 463 533 37,000  Level Minneapolis Center
Tue 05:10:45 PM 42.1469 -94.3869 84° East 463 533 37,000  Level Minneapolis Center
Tue 05:11:45 PM 42.1608 -94.2164 83° East 458 527 37,000  Level Minneapolis Center
Tue 05:12:45 PM 42.1742 -94.0656 86° East 458 527 37,000  Level Minneapolis Center
Tue 05:13:45 PM 42.1833 -93.8922 84° East 458 527 37,000  Level Minneapolis Center
Tue 05:14:46 PM 42.1967 -93.7047 84° East 463 533 37,000  Level Minneapolis Center
Tue 05:17:27 PM 42.2319 -93.2594 84° East 403 464 37,000 -54 Level Chicago Center
Tue 05:18:27 PM 42.2461 -93.0892 85° East 432 497 36,800 -550 Descending Chicago Center
Tue 05:19:27 PM 42.2575 -92.9214 83° East 443 510 35,900 -950 Descending Chicago Center
Tue 05:20:27 PM 42.2731 -92.7511 86° East 448 516 34,900 -950 Descending Chicago Center
Tue 05:21:27 PM 42.2822 -92.5831 83° East 453 521 34,000 -950 Descending Chicago Center
Tue 05:22:27 PM 42.2972 -92.4125 85° East 453 521 33,000 -800 Descending Chicago Center
Tue 05:23:27 PM 42.3078 -92.2475 84° East 453 521 32,400 -900 Descending Chicago Center
Tue 05:24:27 PM 42.3228 -92.0656 86° East 453 521 31,200 -1,100 Descending Chicago Center
Tue 05:25:27 PM 42.3308 -91.8889 84° East 453 521 30,200 -1,000 Descending Chicago Center
Tue 05:26:27 PM 42.3450 -91.7125 86° East 463 533 29,200 -600 Descending Chicago Center
Tue 05:27:27 PM 42.3547 -91.5386 86° East 463 533 29,000 -100 Descending Chicago Center
Tue 05:28:27 PM 42.3642 -91.3675 85° East 458 527 29,000  Level Chicago Center
Tue 05:29:27 PM 42.3753 -91.1936 85° East 458 527 29,000 -100 Level Chicago Center
Tue 05:30:27 PM 42.3864 -91.0169 87° East 458 527 28,800 -550 Descending Chicago Center
Tue 05:31:27 PM 42.3925 -90.8708 86° East 453 521 27,900 -1,100 Descending Chicago Center
Tue 05:32:27 PM 42.4008 -90.7136 81° East 437 503 26,600 -1,400 Descending Chicago Center
Tue 05:33:27 PM 42.4192 -90.5536 83° East 423 487 25,100 -1,300 Descending Chicago Center
Tue 05:34:27 PM 42.4333 -90.4019 80° East 416 479 24,000 -600 Descending Chicago Center
Tue 05:35:27 PM 42.4533 -90.2531 83° East 411 473 23,900 -800 Descending Chicago Center
Tue 05:36:27 PM 42.4669 -90.1042 84° East 400 460 22,400 -950 Descending Chicago Center
Tue 05:37:27 PM 42.4781 -89.9608 83° East 394 453 22,000 -200 Descending Chicago Center
Tue 05:38:27 PM 42.4914 -89.8031 83° East 387 445 22,000 -550 Level Chicago Center
Tue 05:39:27 PM 42.5042 -89.6625 82° East 381 438 20,900 -1,450 Descending Chicago Center
Tue 05:40:27 PM 42.5214 -89.5047 83° East 402 463 19,100 -1,800 Descending Chicago Center
Tue 05:41:27 PM 42.5361 -89.3497 87° East 407 468 17,300 -1,850 Descending Chicago Center
Tue 05:42:27 PM 42.5422 -89.1978 109° East 407 468 15,400 -1,650 Descending Chicago Center
Tue 05:43:27 PM 42.5044 -89.0486 107° East 414 476 14,000 -1,250 Descending Chicago Center
Tue 05:44:27 PM 42.4706 -88.8994 109° East 419 482 12,900 -1,650 Descending Chicago Center
Tue 05:45:27 PM 42.4344 -88.7564 108° East 403 464 10,700 -1,450 Descending Chicago Center
Tue 05:46:27 PM 42.4022 -88.6189 108° East 398 458 10,000 -350 Descending Chicago Center
Tue 05:47:27 PM 42.3700 -88.4842 112° Southeast 393 452 10,000  Level Chicago Center
Tue 05:48:27 PM 42.3358 -88.3725 132° Southeast 387 445 10,000  Level Chicago Center
Tue 05:49:27 PM 42.2597 -88.2586 129° Southeast 376 433 10,000 -500 Level Chicago Center
Tue 05:50:27 PM 42.1919 -88.1475 136° Southeast 361 415 9,000 -1,227 Descending Chicago Center
Tue 05:51:39 PM 42.1167 -88.0500 103° East 317 365 7,300 -902 Descending Chicago TRACON
Tue 05:52:40 PM 42.1000 -87.9500 103° East 282 325 7,000 -94 Descending Chicago TRACON
Tue 05:53:46 PM 42.0833 -87.8500 75° East 235 270 7,100 -286 Climbing Chicago TRACON
Tue 05:54:46 PM 42.1000 -87.7667 90° East 215 247 6,400 -900 Descending Chicago TRACON
Tue 05:55:46 PM 42.1000 -87.6833 109° East 212 244 5,300 -1,158 Descending Chicago TRACON
Tue 05:56:40 PM 42.0833 -87.6167 124° Southeast 213 245 4,200 -684 Descending Chicago TRACON
Tue 05:57:40 PM 42.0667 -87.5833 228° Southwest 212 244 4,000 -100 Descending Chicago TRACON
Tue 05:58:40 PM 42.0333 -87.6333 251° West 189 217 4,000 -100 Level Chicago TRACON
Tue 05:59:40 PM 42.0167 -87.7000 251° West 191 220 3,800 -200 Descending Chicago TRACON

Login

Don't have an account? Register now (free) for customized features, flight alerts, and more!